createdAt,value
2022-09-02T00:01:44.773Z,64.83
2022-09-02T00:04:17.643Z,64.48
2022-09-02T00:06:49.902Z,64.81
2022-09-02T00:09:22.565Z,65.08
2022-09-02T00:11:53.309Z,65.22
2022-09-02T00:14:25.139Z,65.27
2022-09-02T00:16:53.824Z,65.45
2022-09-02T00:19:25.160Z,65.59
2022-09-02T00:21:55.245Z,65.62
2022-09-02T00:24:25.929Z,65.64
2022-09-02T00:26:56.710Z,65.15
2022-09-02T00:29:25.661Z,65.25
2022-09-02T00:31:53.791Z,65.32
2022-09-02T00:34:22.044Z,65.43
2022-09-02T00:36:50.279Z,65.60
2022-09-02T00:39:18.505Z,65.70
2022-09-02T00:41:48.356Z,65.85
2022-09-02T00:44:19.262Z,65.38
2022-09-02T00:46:47.886Z,66.40
2022-09-02T00:49:24.181Z,65.79
2022-09-02T00:51:57.087Z,66.53
2022-09-02T00:54:28.102Z,66.05
2022-09-02T00:56:58.073Z,66.84
2022-09-02T00:59:53.135Z,66.64
2022-09-02T01:02:24.065Z,66.58
2022-09-02T01:04:55.112Z,66.16
2022-09-02T01:07:24.504Z,66.27
2022-09-02T01:09:55.343Z,66.49
2022-09-02T01:12:27.705Z,67.13
2022-09-02T01:14:56.351Z,67.10
2022-09-02T01:17:25.221Z,67.41
2022-09-02T01:19:59.202Z,66.92
2022-09-02T01:22:31.783Z,67.40
2022-09-02T01:25:07.430Z,67.71
2022-09-02T01:27:35.973Z,67.41
2022-09-02T01:30:08.742Z,67.84
2022-09-02T01:32:36.888Z,67.43
2022-09-02T01:35:06.625Z,68.25
2022-09-02T01:37:39.087Z,68.25
2022-09-02T01:40:09.094Z,67.96
2022-09-02T01:42:37.861Z,68.06
2022-09-02T01:45:08.841Z,68.58
2022-09-02T01:47:37.582Z,68.22
2022-09-02T01:50:07.050Z,68.36
2022-09-02T01:52:36.842Z,68.26
2022-09-02T01:55:06.654Z,68.48
2022-09-02T01:57:35.007Z,68.50
2022-09-02T02:00:05.692Z,68.58
2022-09-02T02:02:34.281Z,68.84
2022-09-02T02:05:02.741Z,68.95
2022-09-02T02:07:31.056Z,68.83
2022-09-02T02:10:00.547Z,69.09
2022-09-02T02:12:29.388Z,68.74
2022-09-02T02:14:57.522Z,69.37
2022-09-02T02:17:25.601Z,68.94
2022-09-02T02:19:53.720Z,69.36
2022-09-02T02:22:22.092Z,69.17
2022-09-02T02:24:50.404Z,69.53
2022-09-02T02:27:20.014Z,69.64
2022-09-02T02:29:48.776Z,69.72
2022-09-02T02:32:18.368Z,69.91
2022-09-02T02:34:46.798Z,69.88
2022-09-02T02:37:15.382Z,69.67
2022-09-02T02:39:44.810Z,69.78
2022-09-02T02:42:13.460Z,69.80
2022-09-02T02:44:44.606Z,69.99
2022-09-02T02:47:13.022Z,70.37
2022-09-02T02:49:43.677Z,70.26
2022-09-02T02:52:13.574Z,70.43
2022-09-02T02:54:42.937Z,70.09
2022-09-02T02:57:12.146Z,70.15
2022-09-02T02:59:40.325Z,70.23
2022-09-02T03:02:09.930Z,70.42
2022-09-02T03:04:39.830Z,70.67
2022-09-02T03:07:08.124Z,70.80
2022-09-02T03:09:36.820Z,70.96
2022-09-02T03:12:05.942Z,70.82
2022-09-02T03:14:34.061Z,71.14
2022-09-02T03:17:02.202Z,71.15
2022-09-02T03:19:31.737Z,71.02
2022-09-02T03:21:59.868Z,71.08
2022-09-02T03:24:28.125Z,71.31
2022-09-02T03:26:56.254Z,71.36
2022-09-02T03:29:24.454Z,71.45
2022-09-02T03:31:52.831Z,71.27
2022-09-02T03:34:22.197Z,71.31
2022-09-02T03:36:51.705Z,71.70
2022-09-02T03:39:20.457Z,71.71
2022-09-02T03:41:50.192Z,71.58
2022-09-02T03:44:18.722Z,71.61
2022-09-02T03:46:47.477Z,71.76
2022-09-02T03:49:16.184Z,72.23
2022-09-02T03:51:45.099Z,72.22
2022-09-02T03:54:14.824Z,72.10
2022-09-02T03:56:42.919Z,72.28
2022-09-02T03:59:12.351Z,72.41
2022-09-02T04:01:40.547Z,72.30
2022-09-02T04:04:08.781Z,72.64
2022-09-02T04:06:37.686Z,72.55
2022-09-02T04:09:07.026Z,72.71
2022-09-02T04:11:37.345Z,72.58
2022-09-02T04:14:05.489Z,72.99
2022-09-02T04:16:36.093Z,73.00
2022-09-02T04:19:05.946Z,73.19
2022-09-02T04:21:35.947Z,73.26
2022-09-02T04:24:05.036Z,73.35
2022-09-02T04:26:33.618Z,73.25
2022-09-02T04:29:03.334Z,73.19
2022-09-02T04:31:34.573Z,73.38
2022-09-02T04:34:03.327Z,73.51
2022-09-02T04:36:32.031Z,73.42
2022-09-02T04:39:00.773Z,73.68
2022-09-02T04:41:31.504Z,73.56
2022-09-02T04:44:02.191Z,73.69
2022-09-02T04:46:34.709Z,73.69
2022-09-02T04:49:04.453Z,73.55
2022-09-02T04:51:32.755Z,73.97
2022-09-02T04:54:01.373Z,73.78
2022-09-02T04:56:31.801Z,73.92
2022-09-02T04:59:02.269Z,73.90
2022-09-02T05:01:34.412Z,73.98
2022-09-02T05:04:03.531Z,73.96
2022-09-02T05:06:32.030Z,74.40
2022-09-02T05:09:01.878Z,74.02
2022-09-02T05:11:32.961Z,74.14
2022-09-02T05:14:06.632Z,73.96
2022-09-02T05:16:41.274Z,74.06
2022-09-02T05:19:12.587Z,74.15
2022-09-02T05:21:47.048Z,74.11
2022-09-02T05:24:16.162Z,74.12
2022-09-02T05:26:44.678Z,73.84
2022-09-02T05:29:15.446Z,73.82
2022-09-02T05:31:43.633Z,73.89
2022-09-02T05:34:11.898Z,73.70
2022-09-02T05:36:40.020Z,73.91
2022-09-02T05:39:09.418Z,73.96
2022-09-02T05:41:37.783Z,73.71
2022-09-02T05:44:07.703Z,73.77
2022-09-02T05:46:37.890Z,73.49
2022-09-02T05:49:07.521Z,73.65
2022-09-02T05:51:41.881Z,73.69
2022-09-02T05:54:13.613Z,73.95
2022-09-02T05:56:46.615Z,73.10
2022-09-02T05:59:15.837Z,73.57
2022-09-02T06:01:45.515Z,73.07
2022-09-02T06:04:13.733Z,73.43
2022-09-02T06:06:43.198Z,73.15
2022-09-02T06:09:16.432Z,72.89
2022-09-02T06:11:46.114Z,73.05
2022-09-02T06:14:16.858Z,72.62
2022-09-02T06:16:47.077Z,72.47
2022-09-02T06:19:19.645Z,72.17
2022-09-02T06:21:49.415Z,71.88
2022-09-02T06:24:18.049Z,71.62
2022-09-02T06:26:46.578Z,71.50
2022-09-02T06:29:15.129Z,71.04
2022-09-02T06:31:47.319Z,70.88
2022-09-02T06:34:16.947Z,70.72
2022-09-02T06:36:50.232Z,70.32
2022-09-02T06:39:22.320Z,70.55
2022-09-02T06:41:51.035Z,70.07
2022-09-02T06:44:21.609Z,69.96
2022-09-02T06:46:57.227Z,69.45
2022-09-02T06:49:28.481Z,69.29
2022-09-02T06:51:57.508Z,69.22
2022-09-02T06:54:26.693Z,68.59
2022-09-02T06:56:55.504Z,68.24
2022-09-02T06:59:24.162Z,67.92
2022-09-02T07:01:54.283Z,68.03
2022-09-02T07:04:40.236Z,67.72
2022-09-02T07:07:11.863Z,67.67
2022-09-02T07:09:41.332Z,67.05
2022-09-02T07:12:09.746Z,66.98
2022-09-02T07:14:40.043Z,66.71
2022-09-02T07:17:12.036Z,66.28
2022-09-02T07:19:40.297Z,66.39
2022-09-02T07:22:08.957Z,65.95
2022-09-02T07:24:37.307Z,65.95
2022-09-02T07:27:06.710Z,65.69
2022-09-02T07:29:35.845Z,65.35
2022-09-02T07:32:05.305Z,64.93
2022-09-02T07:34:34.996Z,64.82
2022-09-02T07:37:07.324Z,64.05
2022-09-02T07:39:38.253Z,63.82
2022-09-02T07:42:07.519Z,63.02
2022-09-02T07:44:35.965Z,62.56
2022-09-02T07:47:04.398Z,61.97
2022-09-02T07:50:15.823Z,61.26
2022-09-02T07:52:22.235Z,60.98
2022-09-02T07:54:50.403Z,60.58
2022-09-02T07:57:18.594Z,59.89
2022-09-02T07:59:47.804Z,59.66
2022-09-02T08:02:18.007Z,59.09
2022-09-02T08:04:47.556Z,58.28
2022-09-02T08:07:16.943Z,57.81
2022-09-02T08:09:44.997Z,57.81
2022-09-02T08:12:13.299Z,56.96
2022-09-02T08:14:41.538Z,56.84
2022-09-02T08:17:09.722Z,56.65
2022-09-02T08:19:37.826Z,56.02
2022-09-02T08:22:07.839Z,55.79
2022-09-02T08:24:36.066Z,55.45
2022-09-02T08:27:04.257Z,55.23
2022-09-02T08:29:32.945Z,54.32
2022-09-02T08:32:01.096Z,53.63
2022-09-02T08:34:29.318Z,52.89
2022-09-02T08:36:58.814Z,52.67
2022-09-02T08:39:28.349Z,52.11
2022-09-02T08:42:07.795Z,51.77
2022-09-02T08:44:41.140Z,51.57
2022-09-02T08:47:17.398Z,51.20
2022-09-02T08:49:51.422Z,50.85
2022-09-02T08:52:30.910Z,50.37
2022-09-02T08:55:02.790Z,50.41
2022-09-02T08:57:33.030Z,49.74
2022-09-02T09:00:03.168Z,49.19
2022-09-02T09:02:46.829Z,49.04
2022-09-02T09:05:27.467Z,48.61
2022-09-02T09:08:09.699Z,48.18
2022-09-02T09:10:57.093Z,48.34
2022-09-02T09:14:04.342Z,48.08
2022-09-02T09:16:43.808Z,47.83
2022-09-02T09:19:15.496Z,47.50
2022-09-02T09:21:45.868Z,46.96
2022-09-02T09:24:30.701Z,46.90
2022-09-02T09:27:01.304Z,46.75
2022-09-02T09:29:33.718Z,46.20
2022-09-02T09:32:03.102Z,46.16
2022-09-02T09:35:04.999Z,46.04
2022-09-02T09:37:36.664Z,45.67
2022-09-02T09:40:30.559Z,45.48
2022-09-02T09:43:15.801Z,45.07
2022-09-02T09:45:47.122Z,45.17
2022-09-02T09:48:27.511Z,44.71
2022-09-02T09:51:17.009Z,44.64
2022-09-02T09:53:46.743Z,44.59
2022-09-02T09:56:29.935Z,44.01
2022-09-02T09:58:59.810Z,43.82
2022-09-02T10:01:31.911Z,43.43
2022-09-02T10:04:04.933Z,43.52
2022-09-02T10:06:41.867Z,43.38
2022-09-02T10:09:33.394Z,43.16
2022-09-02T10:12:05.117Z,42.54
2022-09-02T10:14:41.171Z,42.53
2022-09-02T10:17:32.282Z,42.72
2022-09-02T10:20:09.641Z,41.84
2022-09-02T10:23:04.721Z,41.97
2022-09-02T10:25:42.672Z,41.74
2022-09-02T10:28:31.865Z,41.73
2022-09-02T10:31:12.119Z,41.31
2022-09-02T10:33:54.163Z,41.01
2022-09-02T10:36:30.619Z,41.01
2022-09-02T10:39:10.516Z,40.76
2022-09-02T10:44:36.688Z,40.29
2022-09-02T10:47:18.590Z,39.80
2022-09-02T10:50:04.113Z,39.73
2022-09-02T10:52:58.800Z,38.96
2022-09-02T10:55:43.037Z,39.04
2022-09-02T10:58:20.039Z,38.57
2022-09-02T11:00:54.453Z,39.01
2022-09-02T11:03:30.787Z,38.45
2022-09-02T11:06:06.745Z,37.82
2022-09-02T11:08:41.177Z,37.85
2022-09-02T11:11:14.864Z,37.97
2022-09-02T11:13:59.782Z,37.98
2022-09-02T11:16:33.995Z,37.55
2022-09-02T11:19:15.510Z,37.54
2022-09-02T11:21:55.189Z,37.30
2022-09-02T11:24:31.854Z,37.08
2022-09-02T11:27:08.700Z,36.57
2022-09-02T11:30:01.087Z,36.19
2022-09-02T11:32:36.083Z,36.64
2022-09-02T11:35:11.470Z,36.60
2022-09-02T11:37:46.072Z,36.44
2022-09-02T11:40:34.189Z,35.36
2022-09-02T11:43:23.942Z,35.52
2022-09-02T11:46:34.038Z,35.28
2022-09-02T11:49:42.767Z,34.93
2022-09-02T11:52:30.276Z,33.57
2022-09-02T11:55:09.807Z,32.98
2022-09-02T11:57:41.228Z,31.38
2022-09-02T12:00:27.559Z,31.08
2022-09-02T12:03:37.811Z,30.85
2022-09-02T12:06:13.704Z,30.97
2022-09-02T12:09:13.606Z,30.35
2022-09-02T12:11:48.255Z,29.73
2022-09-02T12:15:11.565Z,30.15
2022-09-02T12:18:30.252Z,29.23
2022-09-02T12:21:16.624Z,28.12
2022-09-02T12:24:25.606Z,27.77
2022-09-02T12:27:24.620Z,27.88
2022-09-02T12:29:54.219Z,27.79
2022-09-02T12:33:13.423Z,27.06
2022-09-02T12:35:57.680Z,26.06
2022-09-02T12:38:38.682Z,26.60
2022-09-02T12:41:24.549Z,25.93
2022-09-02T12:44:06.652Z,25.57
2022-09-02T12:46:56.248Z,24.88
2022-09-02T12:49:51.625Z,24.31
2022-09-02T12:53:23.967Z,23.32
2022-09-02T12:56:01.595Z,24.05
2022-09-02T12:58:36.137Z,23.32
2022-09-02T13:01:15.826Z,23.71
2022-09-02T13:04:18.735Z,23.63
2022-09-02T13:07:43.613Z,23.61
2022-09-02T13:10:53.691Z,22.74
2022-09-02T13:14:08.542Z,22.85
2022-09-02T13:16:47.157Z,22.72
2022-09-02T13:19:38.071Z,22.63
2022-09-02T13:22:38.045Z,21.89
2022-09-02T13:25:57.398Z,22.46
2022-09-02T13:29:04.922Z,21.64
2022-09-02T13:31:33.192Z,21.18
2022-09-02T13:34:05.551Z,21.39
2022-09-02T13:36:38.059Z,20.42
2022-09-02T13:39:18.767Z,20.61
2022-09-02T13:41:49.348Z,20.34
2022-09-02T13:44:25.300Z,20.02
2022-09-02T13:46:56.116Z,20.25
2022-09-02T13:49:28.607Z,20.51
2022-09-02T13:51:57.798Z,19.90
2022-09-02T13:54:33.766Z,19.15
2022-09-02T13:57:05.749Z,18.63
2022-09-02T13:59:38.925Z,19.45
2022-09-02T14:02:27.678Z,19.46
2022-09-02T14:05:00.509Z,18.37
2022-09-02T14:07:34.067Z,18.23
2022-09-02T14:10:05.736Z,17.26
2022-09-02T14:12:36.952Z,17.71
2022-09-02T14:15:09.291Z,17.18
2022-09-02T14:17:37.715Z,17.47
2022-09-02T14:20:20.261Z,19.71
2022-09-02T14:22:55.528Z,19.89
2022-09-02T14:25:27.595Z,19.43
2022-09-02T14:27:57.776Z,18.71
2022-09-02T14:30:34.578Z,19.32
2022-09-02T14:33:26.802Z,19.58
2022-09-02T14:36:05.987Z,19.42
2022-09-02T14:38:39.107Z,20.22
2022-09-02T14:41:13.440Z,20.16
2022-09-02T14:43:48.347Z,19.44
2022-09-02T14:46:28.584Z,20.50
2022-09-02T14:49:02.743Z,21.21
2022-09-02T14:51:38.581Z,21.47
2022-09-02T14:54:08.211Z,20.26
2022-09-02T14:56:48.999Z,20.07
2022-09-02T14:59:17.304Z,19.37
2022-09-02T15:01:50.680Z,18.89
2022-09-02T15:04:19.673Z,17.08
2022-09-02T15:06:48.874Z,17.93
2022-09-02T15:09:17.787Z,18.92
2022-09-02T15:11:51.003Z,17.96
2022-09-02T15:14:19.161Z,17.04
2022-09-02T15:16:49.040Z,17.34
2022-09-02T15:19:17.220Z,17.70
2022-09-02T15:21:46.872Z,18.86
2022-09-02T15:24:19.079Z,19.95
2022-09-02T15:26:47.392Z,20.83
2022-09-02T15:29:15.549Z,21.29
2022-09-02T15:31:43.673Z,20.96
2022-09-02T15:34:13.257Z,20.60
2022-09-02T15:36:41.528Z,20.04
2022-09-02T15:39:09.689Z,19.69
2022-09-02T15:41:37.783Z,20.06
2022-09-02T15:44:08.871Z,20.10
2022-09-02T15:46:38.249Z,20.19
2022-09-02T15:49:08.800Z,20.71
2022-09-02T15:51:40.032Z,19.83
2022-09-02T15:54:11.233Z,19.46
2022-09-02T15:56:48.664Z,19.25
2022-09-02T15:59:21.005Z,19.00
2022-09-02T16:01:51.833Z,18.77
2022-09-02T16:04:20.148Z,18.77
2022-09-02T16:06:52.287Z,18.20
2022-09-02T16:09:21.087Z,18.33
2022-09-02T16:11:50.941Z,18.01
2022-09-02T16:14:20.670Z,18.73
2022-09-02T16:16:50.841Z,18.34
2022-09-02T16:19:21.421Z,18.53
2022-09-02T16:21:51.551Z,19.31
2022-09-02T16:24:21.460Z,19.31
2022-09-02T16:26:50.700Z,19.32
2022-09-02T16:29:21.002Z,19.68
2022-09-02T16:32:02.192Z,20.56
2022-09-02T16:34:38.881Z,20.99
2022-09-02T16:37:08.475Z,20.21
2022-09-02T16:39:36.954Z,20.99
2022-09-02T16:42:05.473Z,21.61
2022-09-02T16:44:35.743Z,22.02
2022-09-02T16:47:04.149Z,22.08
2022-09-02T16:49:34.816Z,22.77
2022-09-02T16:52:03.117Z,22.82
2022-09-02T16:54:35.273Z,23.47
2022-09-02T16:57:07.626Z,23.80
2022-09-02T16:59:35.727Z,24.25
2022-09-02T17:02:03.930Z,24.96
2022-09-02T17:04:32.118Z,25.22
2022-09-02T17:07:00.218Z,25.55
2022-09-02T17:09:28.601Z,25.28
2022-09-02T17:11:58.345Z,25.60
2022-09-02T17:14:26.397Z,26.24
2022-09-02T17:16:54.506Z,25.94
2022-09-02T17:19:25.165Z,25.81
2022-09-02T17:21:56.228Z,26.30
2022-09-02T17:24:27.732Z,26.33
2022-09-02T17:26:59.755Z,26.20
2022-09-02T17:29:48.816Z,26.93
2022-09-02T17:32:17.784Z,27.42
2022-09-02T17:34:45.987Z,27.45
2022-09-02T17:37:14.368Z,28.05
2022-09-02T17:39:42.562Z,29.16
2022-09-02T17:42:12.052Z,29.86
2022-09-02T17:44:40.794Z,30.53
2022-09-02T17:47:12.129Z,30.99
2022-09-02T17:49:44.420Z,31.46
2022-09-02T17:52:15.202Z,32.32
2022-09-02T17:54:44.233Z,32.68
2022-09-02T17:57:29.314Z,32.90
2022-09-02T18:00:09.647Z,33.74
2022-09-02T18:03:25.447Z,34.58
2022-09-02T18:06:05.930Z,34.79
2022-09-02T18:08:41.203Z,35.09
2022-09-02T18:11:09.769Z,36.02
2022-09-02T18:13:49.798Z,36.06
2022-09-02T18:16:36.828Z,36.74
2022-09-02T18:19:19.720Z,37.41
2022-09-02T18:22:06.383Z,37.19
2022-09-02T18:24:56.379Z,37.38
2022-09-02T18:27:39.221Z,37.66
2022-09-02T18:30:10.681Z,38.23
2022-09-02T18:33:02.866Z,38.38
2022-09-02T18:35:43.859Z,38.43
2022-09-02T18:38:22.396Z,38.89
2022-09-02T18:41:01.958Z,38.88
2022-09-02T18:43:39.771Z,39.19
2022-09-02T18:46:13.673Z,38.89
2022-09-02T18:48:42.765Z,39.33
2022-09-02T18:51:21.801Z,39.34
2022-09-02T18:53:54.442Z,39.49
2022-09-02T18:56:27.123Z,39.56
2022-09-02T18:59:02.152Z,39.46
2022-09-02T19:01:37.911Z,39.73
2022-09-02T19:04:06.129Z,39.82
2022-09-02T19:06:36.536Z,39.96
2022-09-02T19:09:06.930Z,40.19
2022-09-02T19:11:37.054Z,40.18
2022-09-02T19:14:22.944Z,40.58
2022-09-02T19:16:52.801Z,40.35
2022-09-02T19:19:21.010Z,40.88
2022-09-02T19:21:55.101Z,41.17
2022-09-02T19:24:28.468Z,41.04
2022-09-02T19:27:00.950Z,41.18
2022-09-02T19:29:29.569Z,41.02
2022-09-02T19:31:59.097Z,41.24
2022-09-02T19:34:35.455Z,41.25
2022-09-02T19:37:04.734Z,41.26
2022-09-02T19:39:33.474Z,41.26
2022-09-02T19:42:01.636Z,41.26
2022-09-02T19:44:30.079Z,41.67
2022-09-02T19:49:47.903Z,41.52
2022-09-02T19:52:16.058Z,41.52
2022-09-02T19:54:44.315Z,41.64
2022-09-02T19:57:12.353Z,41.48
2022-09-02T19:59:40.702Z,41.72
2022-09-02T20:02:13.252Z,42.00
2022-09-02T20:04:41.522Z,42.06
2022-09-02T20:07:09.593Z,42.40
2022-09-02T20:09:37.752Z,42.38
2022-09-02T20:12:06.194Z,42.73
2022-09-02T20:14:36.086Z,42.72
2022-09-02T20:17:07.284Z,42.44
2022-09-02T20:19:36.826Z,42.52
2022-09-02T20:22:05.897Z,42.53
2022-09-02T20:24:36.241Z,42.47
2022-09-02T20:27:22.234Z,42.08
2022-09-02T20:30:07.486Z,42.29
2022-09-02T20:32:45.077Z,42.18
2022-09-02T20:35:38.530Z,42.57
2022-09-02T20:38:29.188Z,42.46
2022-09-02T20:41:06.275Z,42.29
2022-09-02T20:44:15.981Z,42.08
2022-09-02T20:47:03.171Z,41.94
2022-09-02T20:49:54.189Z,42.26
2022-09-02T20:52:32.736Z,42.33
2022-09-02T20:55:09.634Z,42.21
2022-09-02T20:58:16.303Z,42.26
2022-09-02T21:01:06.487Z,41.97
2022-09-02T21:03:49.796Z,42.34
2022-09-02T21:06:22.246Z,42.23
2022-09-02T21:09:03.823Z,42.34
2022-09-02T21:11:39.334Z,42.19
2022-09-02T21:14:13.883Z,42.70
2022-09-02T21:16:49.850Z,42.69
2022-09-02T21:19:28.522Z,43.16
2022-09-02T21:22:03.153Z,43.46
2022-09-02T21:24:40.583Z,43.26
2022-09-02T21:27:17.813Z,43.59
2022-09-02T21:30:02.282Z,43.61
2022-09-02T21:32:38.253Z,43.44
2022-09-02T21:35:12.490Z,44.00
2022-09-02T21:37:44.115Z,44.26
2022-09-02T21:40:17.150Z,44.22
2022-09-02T21:43:20.338Z,44.29
2022-09-02T21:45:57.404Z,44.29
2022-09-02T21:48:33.862Z,44.71
2022-09-02T21:51:05.899Z,44.75
2022-09-02T21:53:49.960Z,44.88
2022-09-02T21:56:50.961Z,45.03
2022-09-02T21:59:40.798Z,45.19
2022-09-02T22:02:14.925Z,45.19
2022-09-02T22:04:59.881Z,45.38
2022-09-02T22:07:35.292Z,45.42
2022-09-02T22:10:20.909Z,45.43
2022-09-02T22:12:52.832Z,45.62
2022-09-02T22:15:33.393Z,46.14
2022-09-02T22:18:14.662Z,46.40
2022-09-02T22:20:46.226Z,46.34
2022-09-02T22:23:23.756Z,46.69
2022-09-02T22:25:54.148Z,46.63
2022-09-02T22:28:32.757Z,46.83
2022-09-02T22:31:09.043Z,47.08
2022-09-02T22:33:46.111Z,47.23
2022-09-02T22:36:28.848Z,47.42
2022-09-02T22:39:01.141Z,47.12
2022-09-02T22:41:42.102Z,47.73
2022-09-02T22:44:18.157Z,47.85
2022-09-02T22:47:09.587Z,48.08
2022-09-02T22:50:11.116Z,48.34
2022-09-02T22:52:49.676Z,48.29
2022-09-02T22:55:30.299Z,48.30
2022-09-02T22:58:11.511Z,48.40
2022-09-02T23:00:50.217Z,48.44
2022-09-02T23:03:26.286Z,48.30
2022-09-02T23:06:07.966Z,48.71
2022-09-02T23:08:37.135Z,48.97
2022-09-02T23:11:11.681Z,48.83
2022-09-02T23:13:55.910Z,48.86
2022-09-02T23:16:35.162Z,48.99
2022-09-02T23:19:14.517Z,49.01
2022-09-02T23:21:51.105Z,49.00
2022-09-02T23:24:28.443Z,49.05
2022-09-02T23:27:07.968Z,49.46
2022-09-02T23:29:37.689Z,49.40
2022-09-02T23:32:31.952Z,49.22
2022-09-02T23:35:17.407Z,49.42
2022-09-02T23:38:03.846Z,49.63
2022-09-02T23:40:39.245Z,49.74
2022-09-02T23:43:07.934Z,49.88
2022-09-02T23:45:37.601Z,50.04
2022-09-02T23:48:26.153Z,50.12
2022-09-02T23:51:13.140Z,49.86
2022-09-02T23:53:54.737Z,50.26
2022-09-02T23:56:39.105Z,49.91
2022-09-02T23:59:32.358Z,50.03
